createdAt,value
2022-10-28T00:00:27.384Z,99203.47
2022-10-28T00:01:28.887Z,99193.19
2022-10-28T00:02:30.419Z,99198.84
2022-10-28T00:03:32.950Z,99193.97
2022-10-28T00:04:34.700Z,99199.63
2022-10-28T00:05:36.209Z,99198.50
2022-10-28T00:06:37.698Z,99201.91
2022-10-28T00:07:39.144Z,99208.00
2022-10-28T00:08:41.173Z,99205.34
2022-10-28T00:09:43.085Z,99204.56
2022-10-28T00:10:44.495Z,99207.19
2022-10-28T00:11:45.926Z,99201.50
2022-10-28T00:12:47.331Z,99206.38
2022-10-28T00:13:50.848Z,99207.47
2022-10-28T00:14:52.422Z,99205.19
2022-10-28T00:15:53.873Z,99198.72
2022-10-28T00:16:55.309Z,99205.09
2022-10-28T00:17:56.752Z,99197.88
2022-10-28T00:18:59.813Z,99192.91
2022-10-28T00:20:01.660Z,99195.13
2022-10-28T00:21:06.569Z,99191.72
2022-10-28T00:22:08.046Z,99195.91
2022-10-28T00:23:09.538Z,99191.00
2022-10-28T00:24:13.365Z,99198.19
2022-10-28T00:25:14.877Z,99188.38
2022-10-28T00:26:23.281Z,99195.56
2022-10-28T00:27:24.745Z,99196.31
2022-10-28T00:28:26.141Z,99201.59
2022-10-28T00:29:27.600Z,99197.09
2022-10-28T00:31:36.151Z,99209.63
2022-10-28T00:32:37.595Z,99205.53
2022-10-28T00:33:39.185Z,99200.56
2022-10-28T00:34:40.987Z,99201.00
2022-10-28T00:35:42.460Z,99203.31
2022-10-28T00:36:45.773Z,99196.88
2022-10-28T00:37:47.192Z,99198.44
2022-10-28T00:38:52.070Z,99192.03
2022-10-28T00:39:53.479Z,99194.69
2022-10-28T00:40:54.888Z,99193.56
2022-10-28T00:41:58.785Z,99184.50
2022-10-28T00:43:00.237Z,99196.59
2022-10-28T00:44:23.480Z,99194.75
2022-10-28T00:45:25.261Z,99192.03
2022-10-28T00:46:44.111Z,99184.84
2022-10-28T00:48:12.007Z,99188.88
2022-10-28T00:49:23.803Z,99194.94
2022-10-28T00:50:33.528Z,99197.59
2022-10-28T00:51:35.761Z,99200.25
2022-10-28T00:52:38.002Z,99198.78
2022-10-28T00:53:41.972Z,99204.81
2022-10-28T00:54:45.517Z,99200.28
2022-10-28T00:55:48.598Z,99200.72
2022-10-28T00:56:53.393Z,99204.16
2022-10-28T00:57:56.729Z,99204.56
2022-10-28T00:59:01.514Z,99206.13
2022-10-28T01:00:06.439Z,99205.75
2022-10-28T01:01:07.897Z,99206.16
2022-10-28T01:02:09.481Z,99209.59
2022-10-28T01:03:11.120Z,99200.09
2022-10-28T01:04:13.788Z,99204.63
2022-10-28T01:05:20.455Z,99205.41
2022-10-28T01:06:23.975Z,99192.94
2022-10-28T01:07:26.032Z,99202.06
2022-10-28T01:08:27.532Z,99196.41
2022-10-28T01:09:29.077Z,99200.59
2022-10-28T01:10:42.372Z,99199.81
2022-10-28T01:12:02.743Z,99196.38
2022-10-28T01:13:22.447Z,99193.28
2022-10-28T01:15:00.551Z,99192.09
2022-10-28T01:16:14.162Z,99188.13
2022-10-28T01:17:21.719Z,99186.16
2022-10-28T01:18:33.937Z,99183.50
2022-10-28T01:20:13.046Z,99188.03
2022-10-28T01:21:48.668Z,99182.00
2022-10-28T01:23:23.111Z,99185.41
2022-10-28T01:24:30.959Z,99183.50
2022-10-28T01:25:59.043Z,99182.41
2022-10-28T01:27:19.083Z,99181.63
2022-10-28T01:28:39.180Z,99175.75
2022-10-28T01:30:08.643Z,99168.19
2022-10-28T01:31:52.943Z,99168.19
2022-10-28T01:33:08.069Z,99174.59
2022-10-28T01:34:31.995Z,99172.72
2022-10-28T01:35:46.211Z,99175.75
2022-10-28T01:37:06.159Z,99177.28
2022-10-28T01:38:36.046Z,99176.53
2022-10-28T01:39:47.437Z,99176.53
2022-10-28T01:41:07.187Z,99171.16
2022-10-28T01:42:28.993Z,99174.16
2022-10-28T01:43:46.182Z,99173.78
2022-10-28T01:44:47.615Z,99171.94
2022-10-28T01:45:58.553Z,99172.72
2022-10-28T01:47:09.210Z,99175.75
2022-10-28T01:48:19.214Z,99171.22
2022-10-28T01:49:30.668Z,99169.78
2022-10-28T01:50:52.922Z,99167.13
2022-10-28T01:51:59.247Z,99172.44
2022-10-28T01:53:06.412Z,99167.91
2022-10-28T01:54:09.559Z,99165.59
2022-10-28T01:55:16.266Z,99157.66
2022-10-28T01:56:24.338Z,99167.13
2022-10-28T01:57:30.100Z,99158.44
2022-10-28T01:58:33.341Z,99164.50
2022-10-28T01:59:36.843Z,99157.31
2022-10-28T02:00:39.708Z,99146.72
2022-10-28T02:01:41.277Z,99156.56
2022-10-28T02:02:43.287Z,99156.88
2022-10-28T02:03:47.623Z,99164.06
2022-10-28T02:04:49.332Z,99157.66
2022-10-28T02:05:55.309Z,99166.28
2022-10-28T02:07:00.358Z,99165.53
2022-10-28T02:08:15.394Z,99163.66
2022-10-28T02:09:44.556Z,99164.00
2022-10-28T02:11:03.610Z,99166.66
2022-10-28T02:12:22.106Z,99163.66
2022-10-28T02:13:48.778Z,99164.78
2022-10-28T02:15:11.151Z,99158.00
2022-10-28T02:16:37.948Z,99161.75
2022-10-28T02:18:04.100Z,99162.94
2022-10-28T02:19:27.767Z,99161.75
2022-10-28T02:20:44.224Z,99159.88
2022-10-28T02:22:25.807Z,99158.75
2022-10-28T02:23:41.854Z,99163.28
2022-10-28T02:24:56.122Z,99155.00
2022-10-28T02:26:00.544Z,99158.34
2022-10-28T02:27:21.694Z,99157.59
2022-10-28T02:29:06.650Z,99158.28
2022-10-28T02:30:13.912Z,99156.75
2022-10-28T02:31:26.549Z,99150.34
2022-10-28T02:32:31.983Z,99144.28
2022-10-28T02:33:38.269Z,99151.44
2022-10-28T02:34:45.455Z,99155.22
2022-10-28T02:35:50.566Z,99157.88
2022-10-28T02:36:54.836Z,99163.91
2022-10-28T02:38:00.744Z,99157.50
2022-10-28T02:39:04.521Z,99155.22
2022-10-28T02:40:13.051Z,99156.75
2022-10-28T02:41:25.289Z,99161.69
2022-10-28T02:42:30.589Z,99168.84
2022-10-28T02:43:36.314Z,99166.22
2022-10-28T02:44:52.963Z,99166.28
2022-10-28T02:45:59.576Z,99166.66
2022-10-28T02:47:07.956Z,99162.13
2022-10-28T02:48:40.100Z,99156.81
2022-10-28T02:49:45.907Z,99154.50
2022-10-28T02:50:55.045Z,99152.97
2022-10-28T02:52:00.443Z,99151.81
2022-10-28T02:53:06.770Z,99149.50
2022-10-28T02:54:43.685Z,99149.16
2022-10-28T02:55:50.269Z,99143.88
2022-10-28T02:56:59.065Z,99143.88
2022-10-28T02:58:00.557Z,99150.59
2022-10-28T02:59:02.065Z,99140.38
2022-10-28T03:00:15.536Z,99139.59
2022-10-28T03:01:17.116Z,99143.03
2022-10-28T03:02:18.770Z,99138.81
2022-10-28T03:03:20.379Z,99145.66
2022-10-28T03:04:22.165Z,99139.94
2022-10-28T03:05:23.583Z,99142.59
2022-10-28T03:07:27.308Z,99141.81
2022-10-28T03:08:28.719Z,99144.09
2022-10-28T03:09:30.141Z,99143.03
2022-10-28T03:10:31.567Z,99142.59
2022-10-28T03:11:33.044Z,99147.88
2022-10-28T03:12:34.529Z,99147.47
2022-10-28T03:13:35.952Z,99142.53
2022-10-28T03:14:38.248Z,99142.09
2022-10-28T03:15:39.691Z,99141.72
2022-10-28T03:16:41.142Z,99136.81
2022-10-28T03:17:42.570Z,99140.22
2022-10-28T03:18:44.100Z,99138.69
2022-10-28T03:19:45.881Z,99149.25
2022-10-28T03:20:47.404Z,99144.66
2022-10-28T03:21:48.870Z,99147.66
2022-10-28T03:22:50.341Z,99152.94
2022-10-28T03:23:51.879Z,99149.63
2022-10-28T03:24:53.671Z,99146.53
2022-10-28T03:25:55.110Z,99148.06
2022-10-28T03:26:57.143Z,99142.78
2022-10-28T03:27:58.558Z,99145.00
2022-10-28T03:28:59.956Z,99148.00
2022-10-28T03:30:01.530Z,99146.41
2022-10-28T03:31:02.964Z,99142.53
2022-10-28T03:32:04.653Z,99145.19
2022-10-28T03:33:06.078Z,99144.78
2022-10-28T03:34:07.528Z,99143.25
2022-10-28T03:35:09.647Z,99142.47
2022-10-28T03:36:11.063Z,99144.34
2022-10-28T03:37:12.465Z,99136.41
2022-10-28T03:38:13.878Z,99136.06
2022-10-28T03:39:15.375Z,99141.69
2022-10-28T03:40:17.281Z,99134.88
2022-10-28T03:41:19.027Z,99129.59
2022-10-28T03:42:20.483Z,99134.53
2022-10-28T03:43:21.935Z,99132.66
2022-10-28T03:44:23.722Z,99135.63
2022-10-28T03:45:25.266Z,99133.63
2022-10-28T03:46:27.259Z,99134.72
2022-10-28T03:47:29.566Z,99133.94
2022-10-28T03:48:30.902Z,99143.34
2022-10-28T03:49:32.250Z,99135.31
2022-10-28T03:50:33.599Z,99136.44
2022-10-28T03:51:34.982Z,99127.38
2022-10-28T03:52:36.578Z,99139.50
2022-10-28T03:53:37.992Z,99135.75
2022-10-28T03:54:39.744Z,99139.16
2022-10-28T03:55:41.306Z,99127.84
2022-10-28T03:56:42.786Z,99127.84
2022-10-28T03:57:44.217Z,99130.47
2022-10-28T03:58:48.691Z,99141.81
2022-10-28T03:59:50.505Z,99135.41
2022-10-28T04:00:53.476Z,99134.66
2022-10-28T04:01:55.145Z,99141.81
2022-10-28T04:02:56.936Z,99135.00
2022-10-28T04:03:58.559Z,99145.13
2022-10-28T04:05:00.367Z,99133.78
2022-10-28T04:06:01.792Z,99137.19
2022-10-28T04:07:03.302Z,99142.13
2022-10-28T04:08:04.836Z,99140.19
2022-10-28T04:09:06.258Z,99138.31
2022-10-28T04:10:08.055Z,99148.13
2022-10-28T04:11:09.592Z,99149.25
2022-10-28T04:12:11.326Z,99145.50
2022-10-28T04:13:13.114Z,99151.53
2022-10-28T04:14:14.603Z,99142.50
2022-10-28T04:15:16.623Z,99139.09
2022-10-28T04:16:18.039Z,99141.72
2022-10-28T04:17:19.500Z,99153.06
2022-10-28T04:18:20.927Z,99151.19
2022-10-28T04:19:22.739Z,99151.97
2022-10-28T04:20:25.717Z,99142.94
2022-10-28T04:21:27.304Z,99144.03
2022-10-28T04:22:28.742Z,99140.97
2022-10-28T04:23:30.167Z,99146.59
2022-10-28T04:24:32.001Z,99137.13
2022-10-28T04:25:33.498Z,99141.63
2022-10-28T04:26:34.906Z,99134.47
2022-10-28T04:27:36.360Z,99134.47
2022-10-28T04:28:37.805Z,99134.47
2022-10-28T04:29:39.227Z,99138.66
2022-10-28T04:30:40.683Z,99132.59
2022-10-28T04:31:42.118Z,99144.72
2022-10-28T04:32:44.603Z,99140.19
2022-10-28T04:33:46.116Z,99139.00
2022-10-28T04:34:47.838Z,99147.78
2022-10-28T04:35:49.275Z,99144.38
2022-10-28T04:36:50.822Z,99144.38
2022-10-28T04:37:52.475Z,99148.22
2022-10-28T04:38:54.147Z,99153.16
2022-10-28T04:39:55.896Z,99146.00
2022-10-28T04:40:57.320Z,99154.69
2022-10-28T04:41:58.722Z,99158.09
2022-10-28T04:43:00.169Z,99158.88
2022-10-28T04:44:01.571Z,99160.38
2022-10-28T04:45:03.592Z,99161.19
2022-10-28T04:46:06.104Z,99156.66
2022-10-28T04:47:07.612Z,99160.81
2022-10-28T04:48:10.086Z,99152.91
2022-10-28T04:49:11.572Z,99159.72
2022-10-28T04:50:13.386Z,99160.06
2022-10-28T04:51:15.025Z,99151.38
2022-10-28T04:52:16.507Z,99156.66
2022-10-28T04:53:18.016Z,99149.03
2022-10-28T04:54:19.442Z,99159.97
2022-10-28T04:55:21.019Z,99164.09
2022-10-28T04:56:22.498Z,99166.66
2022-10-28T04:57:23.943Z,99161.34
2022-10-28T04:58:26.516Z,99155.72
2022-10-28T04:59:28.027Z,99164.31
2022-10-28T05:00:30.251Z,99156.38
2022-10-28T05:01:31.714Z,99149.56
2022-10-28T05:02:33.260Z,99148.81
2022-10-28T05:03:35.508Z,99149.91
2022-10-28T05:04:37.299Z,99135.50
2022-10-28T05:05:38.784Z,99143.09
2022-10-28T05:06:40.259Z,99141.22
2022-10-28T05:07:41.865Z,99140.88
2022-10-28T05:08:43.610Z,99143.53
2022-10-28T05:09:45.095Z,99148.03
2022-10-28T05:10:50.023Z,99157.84
2022-10-28T05:11:51.955Z,99159.03
2022-10-28T05:12:53.440Z,99161.25
2022-10-28T05:13:54.890Z,99165.44
2022-10-28T05:14:56.631Z,99163.56
2022-10-28T05:15:58.166Z,99162.13
2022-10-28T05:16:59.605Z,99175.00
2022-10-28T05:18:01.046Z,99162.88
2022-10-28T05:19:02.525Z,99162.13
2022-10-28T05:20:04.883Z,99164.41
2022-10-28T05:21:06.453Z,99169.03
2022-10-28T05:22:07.917Z,99170.19
2022-10-28T05:23:09.994Z,99166.78
2022-10-28T05:24:11.508Z,99172.09
2022-10-28T05:25:13.429Z,99177.72
2022-10-28T05:26:15.360Z,99174.72
2022-10-28T05:27:16.800Z,99176.25
2022-10-28T05:28:19.024Z,99170.97
2022-10-28T05:29:20.939Z,99170.66
2022-10-28T05:30:22.353Z,99162.72
2022-10-28T05:31:23.776Z,99161.94
2022-10-28T05:32:25.219Z,99163.03
2022-10-28T05:33:26.727Z,99154.34
2022-10-28T05:34:28.153Z,99155.44
2022-10-28T05:35:32.741Z,99152.81
2022-10-28T05:36:34.152Z,99153.56
2022-10-28T05:37:36.181Z,99147.97
2022-10-28T05:38:37.832Z,99152.13
2022-10-28T05:39:39.261Z,99152.13
2022-10-28T05:40:40.791Z,99148.72
2022-10-28T05:41:42.227Z,99146.06
2022-10-28T05:42:44.425Z,99154.78
2022-10-28T05:43:45.910Z,99156.66
2022-10-28T05:44:47.834Z,99157.75
2022-10-28T05:45:56.809Z,99166.88
2022-10-28T05:46:58.291Z,99163.81
2022-10-28T05:47:59.758Z,99156.72
2022-10-28T05:49:01.240Z,99157.91
2022-10-28T05:50:02.675Z,99157.25
2022-10-28T05:51:04.119Z,99156.47
2022-10-28T05:52:05.559Z,99153.41
2022-10-28T05:53:06.996Z,99147.75
2022-10-28T05:54:08.513Z,99139.50
2022-10-28T05:55:10.085Z,99136.50
2022-10-28T05:56:11.589Z,99135.72
2022-10-28T05:57:13.079Z,99137.53
2022-10-28T05:58:14.764Z,99143.75
2022-10-28T05:59:16.554Z,99165.34
2022-10-28T06:00:20.335Z,99155.63
2022-10-28T06:01:21.801Z,99152.72
2022-10-28T06:02:23.262Z,99160.06
2022-10-28T06:03:29.995Z,99158.69
2022-10-28T06:05:37.210Z,99171.72
2022-10-28T06:06:38.687Z,99169.94
2022-10-28T06:07:40.498Z,99173.75
2022-10-28T06:08:41.966Z,99173.09
2022-10-28T06:09:43.392Z,99181.09
2022-10-28T06:10:49.883Z,99184.91
2022-10-28T06:11:51.307Z,99188.34
2022-10-28T06:12:55.033Z,99180.47
2022-10-28T06:13:57.018Z,99183.56
2022-10-28T06:14:58.924Z,99189.28
2022-10-28T06:16:00.410Z,99190.78
2022-10-28T06:17:02.648Z,99197.28
2022-10-28T06:18:04.384Z,99196.16
2022-10-28T06:19:06.150Z,99198.47
2022-10-28T06:20:08.275Z,99198.47
2022-10-28T06:21:09.724Z,99193.59
2022-10-28T06:22:11.380Z,99195.56
2022-10-28T06:23:12.856Z,99189.94
2022-10-28T06:24:14.764Z,99189.56
2022-10-28T06:25:17.950Z,99191.88
2022-10-28T06:26:19.469Z,99192.63
2022-10-28T06:27:21.008Z,99195.28
2022-10-28T06:28:22.667Z,99197.59
2022-10-28T06:29:24.674Z,99192.72
2022-10-28T06:30:26.683Z,99196.84
2022-10-28T06:31:28.126Z,99203.66
2022-10-28T06:32:29.612Z,99198.72
2022-10-28T06:33:32.128Z,99202.53
2022-10-28T06:34:33.601Z,99198.78
2022-10-28T06:35:35.099Z,99210.56
2022-10-28T06:36:37.198Z,99207.19
2022-10-28T06:37:38.730Z,99208.75
2022-10-28T06:38:40.501Z,99208.00
2022-10-28T06:39:42.987Z,99210.66
2022-10-28T06:40:46.147Z,99201.59
2022-10-28T06:41:49.351Z,99205.00
2022-10-28T06:42:57.538Z,99195.53
2022-10-28T06:43:59.609Z,99197.41
2022-10-28T06:45:01.189Z,99197.66
2022-10-28T06:46:03.924Z,99197.25
2022-10-28T06:47:06.918Z,99193.06
2022-10-28T06:48:10.156Z,99198.72
2022-10-28T06:49:11.933Z,99199.41
2022-10-28T06:50:13.411Z,99196.06
2022-10-28T06:51:17.105Z,99198.00
2022-10-28T06:52:18.661Z,99201.50
2022-10-28T06:53:20.128Z,99196.56
2022-10-28T06:54:21.636Z,99207.19
2022-10-28T06:55:24.000Z,99205.00
2022-10-28T06:56:25.525Z,99208.47
2022-10-28T06:57:29.183Z,99207.78
2022-10-28T06:58:31.074Z,99209.72
2022-10-28T06:59:32.526Z,99213.59
2022-10-28T07:00:34.669Z,99217.75
2022-10-28T07:01:36.175Z,99221.59
2022-10-28T07:02:41.396Z,99232.94
2022-10-28T07:03:46.065Z,99240.47
2022-10-28T07:04:47.502Z,99247.09
2022-10-28T07:05:51.470Z,99243.94
2022-10-28T07:06:57.410Z,99236.84
2022-10-28T07:07:58.848Z,99228.19
2022-10-28T07:09:00.275Z,99219.84
2022-10-28T07:10:01.675Z,99224.38
2022-10-28T07:11:03.156Z,99218.00
2022-10-28T07:12:05.777Z,99225.69
2022-10-28T07:13:07.321Z,99220.41
2022-10-28T07:14:09.006Z,99219.31
2022-10-28T07:15:10.908Z,99217.75
2022-10-28T07:16:12.321Z,99213.22
2022-10-28T07:17:13.789Z,99208.72
2022-10-28T07:18:15.687Z,99193.75
2022-10-28T07:19:20.281Z,99193.19
2022-10-28T07:20:27.236Z,99191.84
2022-10-28T07:21:29.803Z,99187.34
2022-10-28T07:22:31.240Z,99184.50
2022-10-28T07:23:33.403Z,99186.88
2022-10-28T07:24:34.836Z,99185.78
2022-10-28T07:25:36.258Z,99178.59
2022-10-28T07:26:37.648Z,99175.66
2022-10-28T07:27:39.218Z,99174.53
2022-10-28T07:28:43.113Z,99174.19
2022-10-28T07:29:44.537Z,99172.03
2022-10-28T07:30:45.967Z,99163.41
2022-10-28T07:31:47.426Z,99164.66
2022-10-28T07:32:48.846Z,99164.03
2022-10-28T07:33:54.967Z,99160.25
2022-10-28T07:34:56.392Z,99156.94
2022-10-28T07:35:57.832Z,99162.31
2022-10-28T07:36:59.333Z,99158.97
2022-10-28T07:38:00.776Z,99162.41
2022-10-28T07:39:02.257Z,99168.06
2022-10-28T07:40:04.027Z,99171.19
2022-10-28T07:41:07.102Z,99170.47
2022-10-28T07:42:08.565Z,99183.78
2022-10-28T07:43:10.119Z,99182.72
2022-10-28T07:44:11.977Z,99190.69
2022-10-28T07:45:13.507Z,99197.50
2022-10-28T07:46:15.471Z,99201.00
2022-10-28T07:47:17.675Z,99197.72
2022-10-28T07:48:19.221Z,99201.19
2022-10-28T07:49:20.743Z,99198.56
2022-10-28T07:50:22.230Z,99198.28
2022-10-28T07:51:23.622Z,99195.69
2022-10-28T07:52:25.092Z,99205.63
2022-10-28T07:53:28.731Z,99202.28
2022-10-28T07:54:31.937Z,99193.56
2022-10-28T07:55:33.242Z,99187.59
2022-10-28T07:56:34.586Z,99191.84
2022-10-28T07:57:36.192Z,99197.63
2022-10-28T07:58:37.919Z,99192.78
2022-10-28T07:59:39.318Z,99203.44
2022-10-28T08:00:40.741Z,99191.34
2022-10-28T08:01:42.349Z,99185.66
2022-10-28T08:02:44.416Z,99190.66
2022-10-28T08:03:47.555Z,99175.13
2022-10-28T08:04:49.066Z,99183.97
2022-10-28T08:05:50.480Z,99185.97
2022-10-28T08:06:52.010Z,99191.72
2022-10-28T08:07:53.889Z,99189.88
2022-10-28T08:08:57.115Z,99191.88
2022-10-28T08:09:59.349Z,99191.91
2022-10-28T08:11:12.401Z,99187.34
2022-10-28T08:12:15.590Z,99187.69
2022-10-28T08:13:17.132Z,99184.69
2022-10-28T08:14:18.548Z,99189.31
2022-10-28T08:15:23.520Z,99187.09
2022-10-28T08:16:25.230Z,99183.75
2022-10-28T08:17:26.680Z,99190.63
2022-10-28T08:18:28.440Z,99191.81
2022-10-28T08:19:29.900Z,99188.84
2022-10-28T08:20:31.381Z,99188.53
2022-10-28T08:21:32.963Z,99192.03
2022-10-28T08:22:34.427Z,99191.63
2022-10-28T08:23:36.634Z,99191.34
2022-10-28T08:24:38.141Z,99187.16
2022-10-28T08:25:47.800Z,99189.50
2022-10-28T08:26:49.368Z,99185.00
2022-10-28T08:27:50.808Z,99185.00
2022-10-28T08:28:52.727Z,99181.25
2022-10-28T08:29:54.220Z,99190.03
2022-10-28T08:31:08.531Z,99183.97
2022-10-28T08:32:10.675Z,99185.13
2022-10-28T08:33:13.099Z,99183.63
2022-10-28T08:34:14.668Z,99191.63
2022-10-28T08:35:16.158Z,99193.91
2022-10-28T08:36:17.617Z,99197.72
2022-10-28T08:37:19.118Z,99192.47
2022-10-28T08:38:20.896Z,99187.91
2022-10-28T08:39:22.656Z,99192.50
2022-10-28T08:40:35.982Z,99194.41
2022-10-28T08:42:00.647Z,99194.78
2022-10-28T08:43:16.150Z,99193.56
2022-10-28T08:44:30.838Z,99196.53
2022-10-28T08:45:53.443Z,99192.03
2022-10-28T08:47:16.823Z,99195.88
2022-10-28T08:48:18.677Z,99193.97
2022-10-28T08:49:23.342Z,99187.19
2022-10-28T08:50:31.715Z,99187.56
2022-10-28T08:51:38.969Z,99184.56
2022-10-28T08:52:48.112Z,99177.47
2022-10-28T08:53:59.430Z,99183.16
2022-10-28T08:55:23.928Z,99182.41
2022-10-28T08:56:39.584Z,99175.59
2022-10-28T08:57:45.929Z,99177.13
2022-10-28T08:58:49.929Z,99170.38
2022-10-28T08:59:53.960Z,99171.22
2022-10-28T09:01:00.024Z,99172.75
2022-10-28T09:02:25.475Z,99167.88
2022-10-28T09:03:39.029Z,99167.13
2022-10-28T09:04:46.266Z,99170.22
2022-10-28T09:05:50.505Z,99166.44
2022-10-28T09:06:52.396Z,99164.97
2022-10-28T09:07:55.681Z,99164.25
2022-10-28T09:08:59.294Z,99164.31
2022-10-28T09:10:01.061Z,99163.94
2022-10-28T09:11:06.387Z,99160.56
2022-10-28T09:12:16.910Z,99159.13
2022-10-28T09:13:30.138Z,99156.16
2022-10-28T09:14:58.029Z,99147.84
2022-10-28T09:16:13.736Z,99160.44
2022-10-28T09:17:28.375Z,99158.50
2022-10-28T09:18:54.134Z,99160.84
2022-10-28T09:20:32.088Z,99153.97
2022-10-28T09:21:59.194Z,99155.47
2022-10-28T09:23:17.615Z,99165.00
2022-10-28T09:24:23.888Z,99161.94
2022-10-28T09:25:56.320Z,99170.31
2022-10-28T09:27:28.406Z,99172.22
2022-10-28T09:28:57.499Z,99169.59
2022-10-28T09:30:20.229Z,99162.34
2022-10-28T09:31:39.186Z,99165.41
2022-10-28T09:33:05.246Z,99175.34
2022-10-28T09:34:34.341Z,99167.34
2022-10-28T09:35:44.468Z,99155.91
2022-10-28T09:37:13.979Z,99166.19
2022-10-28T09:38:28.606Z,99160.16
2022-10-28T09:39:41.843Z,99159.38
2022-10-28T09:40:50.767Z,99162.41
2022-10-28T09:41:53.469Z,99158.97
2022-10-28T09:43:01.047Z,99160.88
2022-10-28T09:44:22.867Z,99161.63
2022-10-28T09:45:28.973Z,99160.88
2022-10-28T09:46:36.194Z,99154.78
2022-10-28T09:47:47.075Z,99157.47
2022-10-28T09:48:51.384Z,99158.63
2022-10-28T09:49:57.031Z,99154.84
2022-10-28T09:50:59.135Z,99162.81
2022-10-28T09:52:50.327Z,99162.06
2022-10-28T09:53:57.181Z,99165.53
2022-10-28T09:55:06.858Z,99164.03
2022-10-28T09:57:17.383Z,99160.19
2022-10-28T09:58:19.593Z,99164.00
2022-10-28T09:59:21.128Z,99161.34
2022-10-28T10:00:22.849Z,99162.09
2022-10-28T10:01:24.633Z,99164.78
2022-10-28T10:02:29.759Z,99159.81
2022-10-28T10:03:32.236Z,99168.97
2022-10-28T10:04:35.715Z,99158.28
2022-10-28T10:05:42.193Z,99163.63
2022-10-28T10:06:45.897Z,99169.72
2022-10-28T10:07:56.770Z,99174.28
2022-10-28T10:09:00.430Z,99178.88
2022-10-28T10:10:11.317Z,99173.94
2022-10-28T10:11:27.580Z,99167.44
2022-10-28T10:12:31.580Z,99175.06
2022-10-28T10:13:36.974Z,99170.09
2022-10-28T10:14:56.457Z,99175.81
2022-10-28T10:16:05.692Z,99170.09
2022-10-28T10:17:15.700Z,99175.78
2022-10-28T10:18:23.451Z,99178.44
2022-10-28T10:19:24.949Z,99178.84
2022-10-28T10:20:27.018Z,99178.06
2022-10-28T10:21:42.512Z,99171.94
2022-10-28T10:22:45.813Z,99171.91
2022-10-28T10:23:47.607Z,99171.50
2022-10-28T10:24:49.030Z,99176.84
2022-10-28T10:26:12.427Z,99168.06
2022-10-28T10:27:19.790Z,99156.66
2022-10-28T10:28:22.130Z,99163.88
2022-10-28T10:29:24.592Z,99157.38
2022-10-28T10:30:31.374Z,99167.28
2022-10-28T10:31:33.016Z,99154.69
2022-10-28T10:32:34.526Z,99160.78
2022-10-28T10:33:39.585Z,99157.72
2022-10-28T10:34:58.449Z,99156.16
2022-10-28T10:36:15.530Z,99151.59
2022-10-28T10:37:22.052Z,99151.19
2022-10-28T10:38:23.646Z,99154.22
2022-10-28T10:39:35.039Z,99163.75
2022-10-28T10:40:52.793Z,99166.06
2022-10-28T10:41:58.054Z,99161.47
2022-10-28T10:43:18.112Z,99159.88
2022-10-28T10:44:22.681Z,99163.25
2022-10-28T10:45:26.893Z,99161.69
2022-10-28T10:46:28.430Z,99144.03
2022-10-28T10:47:30.219Z,99147.84
2022-10-28T10:48:38.233Z,99151.28
2022-10-28T10:49:39.674Z,99151.72
2022-10-28T10:50:44.539Z,99142.91
2022-10-28T10:51:53.262Z,99143.59
2022-10-28T10:52:57.932Z,99137.09
2022-10-28T10:54:03.186Z,99135.13
2022-10-28T10:55:08.000Z,99123.69
2022-10-28T10:56:11.370Z,99133.63
2022-10-28T10:57:19.525Z,99134.41
2022-10-28T10:58:24.318Z,99126.75
2022-10-28T10:59:29.735Z,99131.69
2022-10-28T11:00:38.782Z,99122.50
2022-10-28T11:01:40.755Z,99117.47
2022-10-28T11:02:48.995Z,99114.38
2022-10-28T11:04:02.086Z,99112.41
2022-10-28T11:05:07.843Z,99112.03
2022-10-28T11:06:24.618Z,99108.94
2022-10-28T11:07:28.304Z,99108.22
2022-10-28T11:08:39.115Z,99108.22
2022-10-28T11:09:42.411Z,99117.81
2022-10-28T11:10:43.994Z,99115.59
2022-10-28T11:11:45.878Z,99109.53
2022-10-28T11:12:57.188Z,99111.44
2022-10-28T11:14:05.904Z,99110.28
2022-10-28T11:15:16.207Z,99100.75
2022-10-28T11:16:23.809Z,99103.41
2022-10-28T11:17:28.442Z,99101.84
2022-10-28T11:18:40.788Z,99098.84
2022-10-28T11:19:42.566Z,99104.53
2022-10-28T11:21:06.323Z,99091.94
2022-10-28T11:22:10.833Z,99101.50
2022-10-28T11:23:37.453Z,99099.94
2022-10-28T11:24:59.722Z,99090.72
2022-10-28T11:26:06.349Z,99092.22
2022-10-28T11:27:15.961Z,99088.00
2022-10-28T11:28:35.980Z,99089.88
2022-10-28T11:29:37.727Z,99075.69
2022-10-28T11:30:45.325Z,99079.84
2022-10-28T11:31:55.414Z,99080.97
2022-10-28T11:33:08.059Z,99082.88
2022-10-28T11:34:54.983Z,99077.06
2022-10-28T11:36:02.994Z,99071.41
2022-10-28T11:37:26.110Z,99067.56
2022-10-28T11:38:45.890Z,99069.44
2022-10-28T11:40:05.239Z,99066.34
2022-10-28T11:41:09.696Z,99069.00
2022-10-28T11:42:53.096Z,99068.16
2022-10-28T11:44:03.813Z,99067.72
2022-10-28T11:45:19.663Z,99070.38
2022-10-28T11:46:27.110Z,99066.09
2022-10-28T11:47:41.171Z,99069.94
2022-10-28T11:49:01.174Z,99071.81
2022-10-28T11:50:41.076Z,99069.03
2022-10-28T11:52:03.913Z,99071.34
2022-10-28T11:53:44.768Z,99065.09
2022-10-28T11:55:21.798Z,99074.25
2022-10-28T11:56:27.691Z,99068.47
2022-10-28T11:58:06.866Z,99060.75
2022-10-28T11:59:35.083Z,99063.28
2022-10-28T12:00:55.069Z,99067.13
2022-10-28T12:02:02.729Z,99067.13
2022-10-28T12:03:19.490Z,99070.88
2022-10-28T12:04:45.585Z,99066.22
2022-10-28T12:06:03.205Z,99064.59
2022-10-28T12:07:13.485Z,99063.81
2022-10-28T12:08:33.409Z,99061.28
2022-10-28T12:09:56.638Z,99062.66
2022-10-28T12:11:40.152Z,99060.25
2022-10-28T12:12:51.644Z,99067.53
2022-10-28T12:14:16.413Z,99067.09
2022-10-28T12:15:31.370Z,99070.72
2022-10-28T12:16:53.014Z,99069.56
2022-10-28T12:18:06.148Z,99075.75
2022-10-28T12:19:29.751Z,99076.88
2022-10-28T12:20:37.327Z,99068.28
2022-10-28T12:21:44.033Z,99067.00
2022-10-28T12:22:49.238Z,99067.34
2022-10-28T12:23:52.283Z,99062.63
2022-10-28T12:24:55.580Z,99067.59
2022-10-28T12:25:59.653Z,99071.69
2022-10-28T12:27:07.611Z,99070.78
2022-10-28T12:28:25.469Z,99065.81
2022-10-28T12:29:33.622Z,99061.75
2022-10-28T12:30:40.566Z,99061.28
2022-10-28T12:31:47.769Z,99058.44
2022-10-28T12:32:54.384Z,99058.31
2022-10-28T12:33:59.376Z,99060.25
2022-10-28T12:35:13.632Z,99051.97
2022-10-28T12:36:27.297Z,99060.91
2022-10-28T12:37:36.910Z,99049.41
2022-10-28T12:38:54.955Z,99046.78
2022-10-28T12:40:21.158Z,99046.31
2022-10-28T12:41:30.608Z,99042.53
2022-10-28T12:42:37.075Z,99054.22
2022-10-28T12:43:43.913Z,99047.91
2022-10-28T12:44:47.724Z,99047.28
2022-10-28T12:45:55.732Z,99042.47
2022-10-28T12:47:14.407Z,99039.53
2022-10-28T12:48:46.072Z,99042.69
2022-10-28T12:49:53.184Z,99035.88
2022-10-28T12:51:10.134Z,99041.63
2022-10-28T12:52:23.729Z,99048.81
2022-10-28T12:53:37.020Z,99036.88
2022-10-28T12:54:54.102Z,99030.00
2022-10-28T12:56:01.374Z,99030.84
2022-10-28T12:57:18.331Z,99030.53
2022-10-28T12:58:50.192Z,99026.41
2022-10-28T12:59:57.011Z,99032.88
2022-10-28T13:01:07.299Z,99028.66
2022-10-28T13:02:22.163Z,99032.19
2022-10-28T13:03:23.692Z,99029.50
2022-10-28T13:04:26.854Z,99032.88
2022-10-28T13:05:41.614Z,99037.53
2022-10-28T13:07:30.933Z,99039.09
2022-10-28T13:09:02.309Z,99040.28
2022-10-28T13:10:06.684Z,99036.09
2022-10-28T13:11:10.750Z,99034.19
2022-10-28T13:12:39.760Z,99029.88